createdAt,value
2019-04-20T00:00:59.464Z,8.50
2019-04-20T00:03:33.157Z,7.50
2019-04-20T00:05:57.639Z,7.00
2019-04-20T00:08:29.598Z,7.10
2019-04-20T00:11:04.203Z,8.10
2019-04-20T00:13:36.628Z,7.40
2019-04-20T00:15:57.803Z,10.30
2019-04-20T00:18:36.912Z,12.43
2019-04-20T00:21:03.882Z,12.67
2019-04-20T00:23:38.391Z,12.60
2019-04-20T00:26:26.566Z,12.57
2019-04-20T00:29:07.471Z,13.50
2019-04-20T00:31:32.215Z,12.33
2019-04-20T00:33:55.876Z,10.37
2019-04-20T00:36:18.084Z,11.20
2019-04-20T00:38:51.966Z,11.30
2019-04-20T00:41:18.866Z,11.10
2019-04-20T00:43:47.249Z,9.70
2019-04-20T00:46:23.110Z,9.00
2019-04-20T00:48:53.979Z,9.53
2019-04-20T00:51:39.548Z,8.80
2019-04-20T00:53:50.285Z,9.27
2019-04-20T00:56:18.231Z,8.57
2019-04-20T00:58:57.982Z,8.13
2019-04-20T01:01:35.939Z,8.33
2019-04-20T01:04:13.207Z,8.37
2019-04-20T01:06:36.815Z,7.80
2019-04-20T01:08:57.136Z,7.97
2019-04-20T01:11:32.030Z,8.60
2019-04-20T01:14:02.166Z,9.73
2019-04-20T01:16:35.446Z,7.77
2019-04-20T01:18:56.403Z,7.87
2019-04-20T01:21:27.143Z,8.40
2019-04-20T01:23:59.995Z,9.87
2019-04-20T01:26:26.532Z,8.90
2019-04-20T01:29:08.916Z,8.27
2019-04-20T01:31:35.521Z,8.50
2019-04-20T01:34:03.095Z,8.67
2019-04-20T01:36:48.995Z,9.37
2019-04-20T01:39:09.296Z,9.70
2019-04-20T01:41:26.931Z,9.63
2019-04-20T01:43:56.331Z,9.60
2019-04-20T01:46:27.998Z,9.07
2019-04-20T01:48:59.976Z,10.10
2019-04-20T01:51:30.740Z,9.13
2019-04-20T01:54:12.112Z,9.23
2019-04-20T01:56:40.530Z,9.97
2019-04-20T01:59:24.000Z,10.00
2019-04-20T02:01:55.646Z,9.50
2019-04-20T02:04:27.178Z,9.80
2019-04-20T02:06:53.961Z,10.27
2019-04-20T02:09:24.243Z,10.53
2019-04-20T02:11:52.110Z,10.60
2019-04-20T02:14:30.767Z,11.10
2019-04-20T02:17:02.990Z,10.23
2019-04-20T02:19:35.710Z,9.73
2019-04-20T02:22:04.089Z,10.30
2019-04-20T02:24:21.727Z,11.93
2019-04-20T02:26:51.860Z,10.80
2019-04-20T02:29:46.070Z,11.87
2019-04-20T02:34:59.414Z,10.60
2019-04-20T02:45:22.337Z,11.20
2019-04-20T02:47:40.989Z,12.23
2019-04-20T02:50:05.469Z,12.60
2019-04-20T02:52:49.241Z,11.47
2019-04-20T02:55:09.549Z,12.47
2019-04-20T03:02:23.794Z,11.97
2019-04-20T03:04:47.060Z,12.10
2019-04-20T03:07:20.632Z,13.50
2019-04-20T03:09:56.379Z,12.53
2019-04-20T03:12:34.493Z,12.77
2019-04-20T03:14:52.799Z,12.97
2019-04-20T03:17:37.167Z,15.33
2019-04-20T03:19:52.581Z,14.30
2019-04-20T03:22:46.504Z,16.77
2019-04-20T03:25:06.918Z,12.73
2019-04-20T03:27:29.483Z,15.07
2019-04-20T03:30:26.078Z,14.67
2019-04-20T03:33:06.920Z,15.30
2019-04-20T03:35:20.566Z,15.00
2019-04-20T03:37:48.576Z,13.70
2019-04-20T03:40:09.934Z,16.20
2019-04-20T03:42:24.989Z,15.23
2019-04-20T03:45:03.025Z,15.20
2019-04-20T03:47:33.822Z,13.87
2019-04-20T03:50:18.128Z,14.10
2019-04-20T03:52:44.970Z,13.77
2019-04-20T03:55:30.307Z,16.33
2019-04-20T03:58:03.389Z,15.67
2019-04-20T04:00:45.824Z,15.87
2019-04-20T04:03:41.111Z,14.57
2019-04-20T04:05:59.568Z,15.53
2019-04-20T04:08:25.340Z,16.00
2019-04-20T04:11:07.788Z,14.90
2019-04-20T04:13:18.905Z,14.73
2019-04-20T04:15:55.035Z,14.90
2019-04-20T04:18:26.234Z,16.10
2019-04-20T04:20:59.031Z,17.00
2019-04-20T04:23:38.179Z,16.50
2019-04-20T04:26:08.768Z,15.80
2019-04-20T04:28:36.975Z,15.23
2019-04-20T04:36:10.057Z,13.73
2019-04-20T04:38:43.535Z,15.77
2019-04-20T04:43:40.173Z,14.57
2019-04-20T04:45:53.295Z,15.20
2019-04-20T04:48:28.348Z,14.67
2019-04-20T04:50:58.010Z,14.83
2019-04-20T04:53:31.328Z,13.27
2019-04-20T04:55:58.296Z,13.90
2019-04-20T04:58:23.658Z,15.30
2019-04-20T05:00:56.954Z,14.87
2019-04-20T05:03:42.756Z,14.33
2019-04-20T05:06:16.832Z,14.27
2019-04-20T05:08:34.499Z,13.27
2019-04-20T05:10:56.487Z,13.23
2019-04-20T05:13:26.765Z,15.13
2019-04-20T05:16:09.773Z,14.07
2019-04-20T05:18:53.141Z,14.43
2019-04-20T05:21:17.635Z,14.63
2019-04-20T05:23:43.716Z,13.60
2019-04-20T05:26:27.187Z,13.77
2019-04-20T05:28:48.577Z,13.50
2019-04-20T05:31:11.154Z,12.60
2019-04-20T05:34:02.374Z,14.50
2019-04-20T05:36:28.132Z,12.73
2019-04-20T05:39:09.199Z,13.20
2019-04-20T05:41:26.941Z,12.83
2019-04-20T05:46:30.858Z,13.80
2019-04-20T05:49:03.128Z,12.03
2019-04-20T05:51:38.044Z,12.03
2019-04-20T05:54:02.345Z,12.80
2019-04-20T05:56:35.365Z,13.27
2019-04-20T05:58:59.898Z,13.43
2019-04-20T06:01:40.842Z,12.70
2019-04-20T06:04:02.991Z,11.83
2019-04-20T06:06:32.912Z,12.53
2019-04-20T06:09:12.508Z,13.40
2019-04-20T06:11:33.079Z,12.60
2019-04-20T06:13:56.952Z,11.10
2019-04-20T06:16:40.998Z,12.03
2019-04-20T06:19:24.355Z,13.07
2019-04-20T06:21:42.622Z,12.00
2019-04-20T06:24:18.372Z,13.17
2019-04-20T06:26:54.001Z,12.43
2019-04-20T06:29:16.348Z,12.77
2019-04-20T06:31:45.489Z,13.23
2019-04-20T06:36:56.042Z,13.60
2019-04-20T06:39:24.140Z,13.27
2019-04-20T06:42:08.137Z,13.60
2019-04-20T06:44:28.963Z,11.50
2019-04-20T06:47:03.058Z,12.33
2019-04-20T06:49:30.210Z,11.27
2019-04-20T06:52:13.144Z,11.83
2019-04-20T06:54:38.042Z,12.73
2019-04-20T06:57:09.911Z,12.43
2019-04-20T06:59:57.826Z,10.40
2019-04-20T07:02:17.326Z,10.77
2019-04-20T07:04:52.139Z,12.97
2019-04-20T07:07:15.229Z,10.73
2019-04-20T07:09:49.627Z,10.77
2019-04-20T07:12:06.719Z,11.77
2019-04-20T07:14:34.028Z,11.33
2019-04-20T07:17:20.450Z,10.40
2019-04-20T07:19:52.729Z,10.03
2019-04-20T07:22:33.524Z,10.37
2019-04-20T07:25:01.172Z,10.57
2019-04-20T07:27:32.050Z,10.77
2019-04-20T07:30:03.485Z,8.93
2019-04-20T07:32:32.641Z,8.40
2019-04-20T07:35:03.564Z,9.10
2019-04-20T07:40:11.611Z,8.70
2019-04-20T07:42:40.727Z,8.17
2019-04-20T07:45:07.448Z,8.17
2019-04-20T07:47:40.376Z,7.90
2019-04-20T07:50:04.602Z,8.83
2019-04-20T07:52:24.327Z,7.93
2019-04-20T07:55:30.099Z,7.73
2019-04-20T07:57:34.127Z,9.30
2019-04-20T08:00:08.439Z,7.70
2019-04-20T08:02:56.091Z,7.67
2019-04-20T08:05:10.734Z,7.40
2019-04-20T08:07:41.304Z,6.77
2019-04-20T08:10:02.930Z,6.77
2019-04-20T08:13:07.995Z,6.43
2019-04-20T08:15:39.156Z,6.50
2019-04-20T08:17:56.352Z,6.40
2019-04-20T08:20:22.121Z,6.10
2019-04-20T08:22:58.760Z,5.50
2019-04-20T08:25:16.789Z,5.10
2019-04-20T08:27:54.959Z,5.90
2019-04-20T08:30:57.209Z,6.30
2019-04-20T08:33:30.864Z,5.67
2019-04-20T08:36:04.113Z,6.07
2019-04-20T08:39:01.346Z,6.47
2019-04-20T08:41:03.377Z,5.90
2019-04-20T08:43:42.560Z,6.47
2019-04-20T08:46:06.188Z,5.13
2019-04-20T08:48:33.246Z,5.40
2019-04-20T08:51:03.391Z,5.20
2019-04-20T08:53:36.982Z,5.43
2019-04-20T08:56:00.020Z,6.43
2019-04-20T08:58:16.015Z,4.50
2019-04-20T09:00:49.970Z,5.67
2019-04-20T09:03:22.857Z,4.37
2019-04-20T09:05:55.367Z,5.23
2019-04-20T09:08:23.493Z,5.47
2019-04-20T09:11:08.372Z,4.80
2019-04-20T09:13:27.001Z,4.70
2019-04-20T09:15:47.051Z,4.70
2019-04-20T09:18:26.028Z,4.80
2019-04-20T09:20:58.149Z,5.13
2019-04-20T09:23:35.183Z,5.63
2019-04-20T09:26:12.820Z,4.90
2019-04-20T09:28:33.450Z,4.60
2019-04-20T09:31:21.388Z,4.90
2019-04-20T09:33:55.642Z,4.70
2019-04-20T09:36:24.200Z,4.73
2019-04-20T09:39:08.746Z,5.80
2019-04-20T09:41:58.983Z,5.60
2019-04-20T09:44:08.925Z,5.53
2019-04-20T09:46:45.275Z,4.77
2019-04-20T09:49:18.784Z,5.10
2019-04-20T09:51:56.376Z,5.40
2019-04-20T09:54:25.657Z,5.33
2019-04-20T09:56:59.583Z,4.60
2019-04-20T09:59:31.884Z,5.67
2019-04-20T10:01:45.325Z,4.30
2019-04-20T10:04:11.071Z,4.60
2019-04-20T10:06:39.683Z,4.90
2019-04-20T10:09:09.685Z,4.57
2019-04-20T10:11:40.816Z,4.30
2019-04-20T10:14:08.501Z,3.27
2019-04-20T10:16:37.893Z,3.80
2019-04-20T10:19:08.839Z,3.77
2019-04-20T10:21:38.215Z,3.40
2019-04-20T10:24:06.794Z,2.90
2019-04-20T10:26:36.381Z,3.50
2019-04-20T10:29:05.690Z,3.70
2019-04-20T10:31:37.657Z,2.90
2019-04-20T10:34:04.602Z,2.77
2019-04-20T10:36:41.760Z,3.30
2019-04-20T10:39:10.954Z,2.90
2019-04-20T10:41:46.996Z,2.57
2019-04-20T10:44:11.204Z,2.70
2019-04-20T10:46:40.730Z,3.10
2019-04-20T10:49:09.668Z,1.97
2019-04-20T10:51:39.961Z,2.33
2019-04-20T10:54:08.831Z,2.30
2019-04-20T10:56:37.421Z,2.10
2019-04-20T10:59:05.879Z,2.20
2019-04-20T11:01:35.843Z,3.07
2019-04-20T11:04:04.904Z,2.50
2019-04-20T11:06:34.561Z,2.80
2019-04-20T11:09:04.693Z,2.30
2019-04-20T11:11:34.067Z,2.50
2019-04-20T11:14:11.783Z,3.40
2019-04-20T11:16:33.806Z,2.23
2019-04-20T11:19:03.245Z,2.20
2019-04-20T11:21:32.341Z,3.93
2019-04-20T11:24:00.922Z,3.03
2019-04-20T11:26:29.378Z,3.37
2019-04-20T11:28:58.058Z,3.10
2019-04-20T11:31:35.406Z,3.40
2019-04-20T11:33:56.730Z,2.80
2019-04-20T11:36:25.386Z,2.80
2019-04-20T11:38:54.419Z,3.50
2019-04-20T11:41:26.141Z,4.53
2019-04-20T11:43:53.768Z,3.07
2019-04-20T11:46:22.876Z,3.20
2019-04-20T11:48:51.925Z,2.90
2019-04-20T11:51:21.528Z,3.03
2019-04-20T11:53:50.282Z,3.13
2019-04-20T11:56:23.883Z,3.43
2019-04-20T11:58:49.178Z,2.50
2019-04-20T12:01:23.409Z,1.70
2019-04-20T12:04:00.381Z,2.23
2019-04-20T12:06:21.145Z,2.03
2019-04-20T12:08:49.838Z,2.30
2019-04-20T12:11:26.535Z,2.20
2019-04-20T12:13:48.964Z,1.93
2019-04-20T12:16:17.610Z,2.20
2019-04-20T12:18:46.440Z,1.80
2019-04-20T12:21:15.040Z,1.90
2019-04-20T12:23:44.504Z,2.00
2019-04-20T12:26:13.207Z,1.77
2019-04-20T12:28:41.647Z,1.80
2019-04-20T12:31:14.710Z,2.20
2019-04-20T12:33:40.414Z,1.33
2019-04-20T12:36:10.436Z,1.57
2019-04-20T12:38:39.170Z,1.77
2019-04-20T12:41:09.569Z,2.73
2019-04-20T12:43:38.159Z,1.60
2019-04-20T12:46:07.680Z,2.00
2019-04-20T12:48:37.634Z,1.73
2019-04-20T12:51:06.330Z,1.57
2019-04-20T12:53:35.014Z,1.83
2019-04-20T12:56:04.365Z,1.70
2019-04-20T12:58:32.989Z,1.90
2019-04-20T13:01:02.604Z,1.83
2019-04-20T13:03:31.765Z,1.73
2019-04-20T13:06:01.849Z,2.27
2019-04-20T13:08:38.061Z,2.57
2019-04-20T13:11:08.692Z,2.00
2019-04-20T13:13:48.267Z,2.10
2019-04-20T13:16:18.612Z,2.10
2019-04-20T13:18:48.901Z,1.97
2019-04-20T13:21:18.890Z,1.97
2019-04-20T13:23:48.960Z,2.10
2019-04-20T13:26:17.628Z,2.63
2019-04-20T13:28:46.764Z,2.27
2019-04-20T13:31:15.745Z,2.07
2019-04-20T13:33:45.334Z,2.07
2019-04-20T13:36:14.400Z,1.63
2019-04-20T13:38:44.097Z,1.90
2019-04-20T13:41:13.741Z,1.90
2019-04-20T13:43:43.817Z,1.57
2019-04-20T13:46:13.309Z,1.87
2019-04-20T13:48:42.738Z,1.83
2019-04-20T13:51:12.615Z,2.13
2019-04-20T13:53:41.376Z,1.40
2019-04-20T13:56:10.472Z,1.50
2019-04-20T13:58:54.027Z,1.93
2019-04-20T14:01:24.179Z,1.83
2019-04-20T14:04:10.827Z,1.80
2019-04-20T14:06:39.930Z,2.03
2019-04-20T14:09:09.745Z,2.10
2019-04-20T14:11:39.202Z,2.10
2019-04-20T14:14:08.350Z,1.90
2019-04-20T14:16:37.047Z,1.80
2019-04-20T14:19:07.053Z,1.80
2019-04-20T14:21:36.368Z,2.10
2019-04-20T14:24:06.665Z,1.70
2019-04-20T14:26:38.590Z,2.20
2019-04-20T14:29:05.564Z,2.20
2019-04-20T14:31:35.097Z,2.30
2019-04-20T14:34:04.770Z,2.87
2019-04-20T14:36:33.389Z,2.67
2019-04-20T14:39:02.467Z,2.20
2019-04-20T14:41:31.071Z,2.53
2019-04-20T14:43:59.545Z,2.47
2019-04-20T14:46:29.473Z,2.10
2019-04-20T14:48:58.824Z,2.67
2019-04-20T14:51:27.866Z,2.03
2019-04-20T14:53:56.449Z,2.67
2019-04-20T14:56:25.279Z,2.67
2019-04-20T14:58:58.182Z,2.43
2019-04-20T15:01:28.311Z,2.60
2019-04-20T15:04:04.288Z,2.67
2019-04-20T15:06:27.554Z,3.00
2019-04-20T15:08:56.758Z,2.40
2019-04-20T15:11:25.366Z,2.40
2019-04-20T15:13:53.928Z,2.77
2019-04-20T15:16:22.565Z,2.77
2019-04-20T15:18:54.760Z,2.77
2019-04-20T15:21:35.634Z,3.43
2019-04-20T15:24:05.807Z,2.90
2019-04-20T15:26:34.402Z,2.53
2019-04-20T15:29:04.274Z,3.00
2019-04-20T15:31:34.208Z,2.73
2019-04-20T15:34:03.336Z,2.97
2019-04-20T15:36:34.066Z,2.90
2019-04-20T15:39:03.125Z,2.67
2019-04-20T15:41:31.641Z,2.50
2019-04-20T15:44:01.581Z,2.73
2019-04-20T15:46:32.692Z,3.00
2019-04-20T15:49:01.995Z,3.00
2019-04-20T15:51:31.916Z,2.93
2019-04-20T15:54:01.912Z,2.47
2019-04-20T15:56:30.670Z,2.60
2019-04-20T15:58:59.135Z,3.13
2019-04-20T16:01:30.277Z,3.30
2019-04-20T16:04:01.458Z,2.23
2019-04-20T16:06:31.544Z,2.90
2019-04-20T16:09:02.065Z,3.33
2019-04-20T16:11:32.950Z,2.80
2019-04-20T16:14:03.343Z,3.20
2019-04-20T16:16:32.013Z,3.10
2019-04-20T16:19:03.966Z,2.73
2019-04-20T16:21:33.904Z,2.57
2019-04-20T16:24:04.334Z,3.37
2019-04-20T16:26:35.709Z,3.63
2019-04-20T16:29:05.970Z,2.80
2019-04-20T16:31:34.722Z,3.30
2019-04-20T16:34:05.287Z,2.90
2019-04-20T16:36:34.629Z,2.37
2019-04-20T16:39:03.757Z,2.83
2019-04-20T16:41:32.655Z,3.40
2019-04-20T16:44:01.384Z,2.97
2019-04-20T16:46:30.201Z,2.90
2019-04-20T16:48:59.017Z,2.30
2019-04-20T16:51:29.072Z,2.57
2019-04-20T16:53:57.771Z,2.77
2019-04-20T16:56:26.640Z,3.20
2019-04-20T16:59:01.386Z,2.60
2019-04-20T17:01:25.637Z,3.00
2019-04-20T17:04:02.161Z,3.10
2019-04-20T17:06:24.594Z,2.63
2019-04-20T17:08:53.132Z,2.77
2019-04-20T17:11:23.638Z,2.87
2019-04-20T17:13:56.240Z,2.97
2019-04-20T17:16:23.846Z,2.93
2019-04-20T17:18:52.466Z,3.40
2019-04-20T17:21:24.096Z,3.00
2019-04-20T17:23:51.454Z,3.10
2019-04-20T17:26:23.027Z,3.63
2019-04-20T17:29:09.191Z,3.17
2019-04-20T17:31:40.380Z,3.50
2019-04-20T17:34:27.191Z,3.23
2019-04-20T17:36:40.349Z,3.93
2019-04-20T17:39:12.495Z,3.50
2019-04-20T17:41:55.830Z,3.53
2019-04-20T17:44:28.585Z,2.23
2019-04-20T17:46:52.095Z,3.40
2019-04-20T17:49:28.390Z,3.03
2019-04-20T17:52:06.220Z,3.67
2019-04-20T17:54:29.394Z,2.80
2019-04-20T17:56:58.268Z,2.77
2019-04-20T17:59:28.288Z,2.77
2019-04-20T18:02:11.950Z,2.77
2019-04-20T18:07:28.197Z,5.60
2019-04-20T18:09:50.407Z,4.87
2019-04-20T18:12:06.705Z,7.03
2019-04-20T18:14:47.972Z,8.73
2019-04-20T18:17:17.785Z,9.00
2019-04-20T18:19:38.927Z,7.87
2019-04-20T18:22:09.855Z,7.10
2019-04-20T18:25:02.545Z,7.60
2019-04-20T18:27:32.060Z,5.20
2019-04-20T18:29:58.789Z,5.23
2019-04-20T18:32:19.813Z,5.07
2019-04-20T18:34:56.350Z,4.33
2019-04-20T18:37:23.946Z,4.90
2019-04-20T18:40:00.823Z,4.50
2019-04-20T18:42:30.304Z,4.70
2019-04-20T18:45:14.396Z,4.70
2019-04-20T18:47:48.097Z,5.10
2019-04-20T18:50:03.152Z,5.00
2019-04-20T18:52:24.230Z,4.60
2019-04-20T18:54:55.415Z,4.77
2019-04-20T18:57:27.973Z,4.80
2019-04-20T18:59:55.283Z,3.53
2019-04-20T19:02:29.390Z,5.80
2019-04-20T19:04:56.974Z,6.43
2019-04-20T19:07:24.085Z,6.77
2019-04-20T19:10:00.476Z,6.30
2019-04-20T19:12:31.121Z,6.07
2019-04-20T19:15:12.030Z,6.00
2019-04-20T19:17:48.187Z,6.50
2019-04-20T19:20:18.298Z,5.87
2019-04-20T19:22:48.094Z,12.37
2019-04-20T19:25:25.443Z,7.50
2019-04-20T19:27:52.589Z,5.40
2019-04-20T19:30:27.335Z,5.53
2019-04-20T19:33:04.855Z,8.00
2019-04-20T19:35:31.904Z,8.70
2019-04-20T19:37:58.623Z,8.10
2019-04-20T19:40:36.024Z,7.10
2019-04-20T19:43:02.393Z,7.73
2019-04-20T19:45:42.338Z,6.70
2019-04-20T19:48:06.068Z,8.00
2019-04-20T19:50:41.263Z,17.23
2019-04-20T19:53:16.449Z,10.87
2019-04-20T19:55:40.503Z,7.87
2019-04-20T19:58:10.356Z,7.00
2019-04-20T20:00:39.062Z,5.30
2019-04-20T20:03:07.814Z,5.60
2019-04-20T20:05:42.337Z,6.27
2019-04-20T20:08:15.027Z,6.70
2019-04-20T20:10:39.526Z,7.30
2019-04-20T20:13:08.248Z,8.33
2019-04-20T20:15:39.505Z,8.33
2019-04-20T20:18:27.495Z,9.00
2019-04-20T20:20:55.356Z,8.70
2019-04-20T20:23:08.125Z,8.07
2019-04-20T20:25:42.355Z,8.97
2019-04-20T20:28:19.024Z,7.87
2019-04-20T20:30:49.260Z,8.33
2019-04-20T20:33:26.708Z,9.97
2019-04-20T20:35:49.330Z,9.17
2019-04-20T20:38:21.846Z,11.07
2019-04-20T20:40:52.412Z,12.50
2019-04-20T20:43:18.164Z,9.93
2019-04-20T20:45:47.829Z,10.13
2019-04-20T20:48:24.569Z,9.00
2019-04-20T20:50:58.541Z,9.20
2019-04-20T20:53:16.273Z,9.20
2019-04-20T20:55:44.007Z,8.60
2019-04-20T20:58:17.428Z,8.70
2019-04-20T21:00:51.863Z,8.90
2019-04-20T21:03:20.547Z,8.20
2019-04-20T21:05:41.810Z,8.13
2019-04-20T21:08:11.383Z,8.77
2019-04-20T21:10:42.906Z,9.50
2019-04-20T21:13:12.081Z,9.50
2019-04-20T21:15:40.621Z,9.03
2019-04-20T21:18:33.586Z,9.53
2019-04-20T21:20:55.078Z,9.40
2019-04-20T21:23:25.999Z,9.73
2019-04-20T21:25:47.554Z,9.80
2019-04-20T21:28:18.498Z,10.87
2019-04-20T21:30:49.007Z,9.10
2019-04-20T21:33:20.672Z,8.90
2019-04-20T21:35:53.488Z,10.13
2019-04-20T21:38:24.907Z,9.60
2019-04-20T21:40:59.687Z,9.43
2019-04-20T21:43:27.941Z,9.53
2019-04-20T21:46:00.338Z,9.93
2019-04-20T21:48:49.279Z,10.50
2019-04-20T21:51:13.418Z,10.63
2019-04-20T21:53:34.153Z,10.83
2019-04-20T21:56:03.813Z,10.93
2019-04-20T21:58:40.814Z,11.13
2019-04-20T22:01:17.658Z,10.40
2019-04-20T22:03:36.418Z,10.67
2019-04-20T22:06:06.827Z,10.80
2019-04-20T22:08:45.957Z,9.63
2019-04-20T22:11:11.634Z,10.20
2019-04-20T22:13:43.651Z,9.23
2019-04-20T22:16:12.777Z,9.20
2019-04-20T22:18:58.147Z,10.47
2019-04-20T22:21:22.693Z,9.43
2019-04-20T22:23:59.876Z,10.47
2019-04-20T22:26:27.742Z,9.30
2019-04-20T22:28:48.384Z,8.50
2019-04-20T22:31:18.346Z,9.37
2019-04-20T22:33:48.911Z,9.10
2019-04-20T22:36:18.242Z,8.50
2019-04-20T22:39:05.277Z,9.57
2019-04-20T22:41:34.639Z,8.03
2019-04-20T22:44:11.847Z,9.77
2019-04-20T22:46:36.842Z,8.83
2019-04-20T22:49:23.034Z,9.20
2019-04-20T22:51:47.349Z,10.17
2019-04-20T22:54:21.611Z,10.00
2019-04-20T22:56:49.913Z,9.20
2019-04-20T22:59:16.457Z,10.20
2019-04-20T23:01:46.578Z,9.20
2019-04-20T23:04:10.866Z,10.10
2019-04-20T23:06:44.226Z,10.80
2019-04-20T23:09:13.254Z,11.33
2019-04-20T23:11:42.114Z,12.13
2019-04-20T23:14:10.995Z,12.27
2019-04-20T23:16:43.865Z,11.10
2019-04-20T23:19:10.122Z,9.03
2019-04-20T23:21:40.102Z,9.97
2019-04-20T23:24:13.241Z,9.60
2019-04-20T23:26:43.581Z,9.37
2019-04-20T23:29:11.271Z,8.20
2019-04-20T23:31:46.033Z,10.70
2019-04-20T23:34:18.757Z,10.27
2019-04-20T23:36:45.176Z,10.60
2019-04-20T23:39:10.867Z,9.83
2019-04-20T23:41:42.624Z,10.80
2019-04-20T23:44:29.631Z,10.00
2019-04-20T23:47:07.785Z,11.03
2019-04-20T23:49:44.263Z,10.10
2019-04-20T23:52:26.699Z,9.33
2019-04-20T23:54:35.180Z,9.53
2019-04-20T23:57:03.792Z,10.50
2019-04-20T23:59:38.022Z,10.97
